Time;durP1;ratioP1;P1;durP2;ratioP2;P2;SDS_P1;SDS_P2;PMS_P1;PMS_P2;Temp;Humidity;BMP_temperature;BMP_pressure;BME280_temperature;BME280_humidity;BME280_pressure;Samples;Min_cycle;Max_cycle;Signal;HPM_P1;HPM_P2
2021/03/06 00:02:15;;;;;;;14.50;3.80;;;1.80;99.90;;;;;;5057804;28;20512;-69
2021/03/06 00:04:40;;;;;;;9.07;3.28;;;1.80;99.90;;;;;;5065679;28;20154;-73
2021/03/06 00:07:06;;;;;;;10.30;3.10;;;1.80;99.90;;;;;;5055482;28;20336;-67
2021/03/06 00:09:32;;;;;;;13.55;3.42;;;1.90;99.90;;;;;;5065670;28;20607;-72
2021/03/06 00:11:57;;;;;;;11.55;4.60;;;1.90;99.90;;;;;;5053866;28;20031;-68
2021/03/06 00:14:23;;;;;;;12.77;3.30;;;1.80;99.90;;;;;;5068006;28;20028;-70
2021/03/06 00:16:48;;;;;;;11.80;3.80;;;1.80;99.90;;;;;;5068913;28;20016;-70
2021/03/06 00:19:14;;;;;;;9.98;3.80;;;1.80;99.90;;;;;;5068455;28;20437;-67
2021/03/06 00:21:39;;;;;;;20.67;4.10;;;1.80;99.90;;;;;;5068234;28;20574;-69
2021/03/06 00:24:05;;;;;;;13.98;3.65;;;1.80;99.90;;;;;;5070013;28;20020;-69
2021/03/06 00:26:31;;;;;;;21.00;3.55;;;1.70;99.90;;;;;;5068222;28;20024;-69
2021/03/06 00:28:57;;;;;;;16.17;4.20;;;1.80;99.90;;;;;;5057801;28;20035;-70
2021/03/06 00:31:22;;;;;;;11.77;3.95;;;1.70;99.90;;;;;;5068479;28;20031;-69
2021/03/06 00:33:48;;;;;;;12.38;3.92;;;1.70;99.90;;;;;;5058301;28;20373;-70
2021/03/06 00:36:14;;;;;;;10.88;3.72;;;1.70;99.90;;;;;;5068225;28;20048;-68
2021/03/06 00:38:41;;;;;;;9.20;3.90;;;1.70;99.90;;;;;;5062515;28;20024;-68
2021/03/06 00:41:07;;;;;;;9.93;4.07;;;1.60;99.90;;;;;;5062275;28;20095;-69
2021/03/06 00:43:32;;;;;;;7.68;3.45;;;1.60;99.90;;;;;;5058266;28;20044;-69
2021/03/06 00:45:58;;;;;;;14.80;4.20;;;1.60;99.90;;;;;;5063494;28;20025;-67
2021/03/06 00:48:24;;;;;;;11.23;3.97;;;1.60;99.90;;;;;;5064359;28;20745;-69
2021/03/06 00:50:50;;;;;;;8.32;4.47;;;1.60;99.90;;;;;;5062398;28;20032;-69
2021/03/06 00:53:16;;;;;;;14.02;4.00;;;1.60;99.90;;;;;;5056249;28;20033;-68
2021/03/06 00:55:42;;;;;;;10.13;4.00;;;1.70;99.90;;;;;;5042659;28;20024;-68
2021/03/06 00:58:07;;;;;;;8.05;4.07;;;1.70;99.90;;;;;;5061017;28;20804;-69
2021/03/06 01:00:33;;;;;;;6.95;3.83;;;1.60;99.90;;;;;;5062528;28;20196;-67
2021/03/06 01:02:58;;;;;;;14.70;5.05;;;1.60;99.90;;;;;;5060450;28;20051;-68
2021/03/06 01:05:25;;;;;;;11.52;4.18;;;1.60;99.90;;;;;;5061037;28;20025;-68
2021/03/06 01:07:50;;;;;;;14.25;4.40;;;1.60;99.90;;;;;;5058434;28;20054;-67
2021/03/06 01:10:30;;;;;;;13.52;4.20;;;1.60;99.90;;;;;;5064227;28;20024;-67
2021/03/06 01:12:56;;;;;;;13.93;3.83;;;1.60;99.90;;;;;;5051331;28;20020;-70
2021/03/06 01:15:21;;;;;;;11.50;3.53;;;1.60;99.90;;;;;;5058187;28;20150;-67
2021/03/06 01:17:47;;;;;;;20.38;4.32;;;1.60;99.90;;;;;;5061969;28;20572;-67
2021/03/06 01:20:13;;;;;;;11.27;4.32;;;1.60;99.90;;;;;;5062352;28;20074;-66
2021/03/06 01:22:39;;;;;;;6.93;3.65;;;1.50;99.90;;;;;;5071348;28;20056;-68
2021/03/06 01:25:06;;;;;;;17.90;4.97;;;1.50;99.90;;;;;;5066982;28;20060;-70
2021/03/06 01:27:32;;;;;;;12.05;4.60;;;1.50;99.90;;;;;;5066732;28;20059;-70
2021/03/06 01:29:57;;;;;;;8.18;4.25;;;1.50;99.90;;;;;;5060215;28;20458;-68
2021/03/06 01:32:23;;;;;;;9.60;4.47;;;1.50;99.90;;;;;;5062305;28;20013;-65
2021/03/06 01:34:49;;;;;;;10.80;4.82;;;1.50;99.90;;;;;;5058950;28;20092;-67
2021/03/06 01:37:14;;;;;;;14.43;4.28;;;1.50;99.90;;;;;;5061494;28;21462;-68
2021/03/06 01:39:40;;;;;;;11.27;3.83;;;1.40;99.90;;;;;;5061208;28;20074;-70
2021/03/06 01:42:07;;;;;;;13.70;4.85;;;1.40;99.90;;;;;;5070850;28;20020;-69
2021/03/06 01:44:33;;;;;;;13.68;5.22;;;1.40;99.90;;;;;;5069237;28;20021;-67
2021/03/06 01:46:59;;;;;;;15.65;5.15;;;1.30;99.90;;;;;;5069381;28;20024;-70
2021/03/06 01:49:25;;;;;;;11.43;5.28;;;1.30;99.90;;;;;;5069384;28;20044;-68
2021/03/06 01:51:51;;;;;;;15.98;5.30;;;1.20;99.90;;;;;;5071690;28;20036;-67
2021/03/06 01:54:22;;;;;;;14.90;4.80;;;1.20;99.90;;;;;;5059005;28;20029;-69
2021/03/06 01:56:54;;;;;;;22.40;5.28;;;1.20;99.90;;;;;;5073311;28;20016;-68
2021/03/06 01:59:19;;;;;;;13.02;4.63;;;1.20;99.90;;;;;;5089963;28;20107;-68
2021/03/06 02:01:45;;;;;;;16.65;5.22;;;1.20;99.90;;;;;;5059209;28;20422;-68
2021/03/06 02:04:12;;;;;;;11.95;5.22;;;1.20;99.90;;;;;;5064970;28;20036;-69
2021/03/06 02:06:38;;;;;;;12.65;5.00;;;1.20;99.90;;;;;;5071406;28;20889;-69
2021/03/06 02:09:04;;;;;;;16.17;6.53;;;1.20;99.90;;;;;;5070725;28;20704;-69
2021/03/06 02:11:56;;;;;;;17.25;5.88;;;1.20;99.90;;;;;;5079895;28;20028;-68
2021/03/06 02:14:39;;;;;;;13.60;4.85;;;1.20;99.90;;;;;;5081278;28;20041;-69
2021/03/06 02:17:11;;;;;;;10.38;3.92;;;1.20;99.90;;;;;;5067712;28;20039;-68
2021/03/06 02:20:08;;;;;;;11.73;4.10;;;1.30;99.90;;;;;;5073749;28;20102;-70
2021/03/06 02:22:52;;;;;;;14.75;4.57;;;1.20;99.90;;;;;;5089981;28;20028;-69
2021/03/06 02:25:52;;;;;;;28.75;5.47;;;1.20;99.90;;;;;;5076055;28;20028;-68
2021/03/06 02:28:36;;;;;;;12.43;4.53;;;1.20;99.90;;;;;;5071413;28;20033;-70
2021/03/06 02:31:04;;;;;;;8.90;4.35;;;1.20;99.90;;;;;;5053174;28;20614;-69
2021/03/06 02:33:31;;;;;;;14.90;4.65;;;1.20;99.90;;;;;;5060905;28;20037;-70
2021/03/06 02:36:01;;;;;;;15.20;4.47;;;1.20;99.90;;;;;;5071064;28;20021;-68
2021/03/06 02:38:29;;;;;;;9.68;3.50;;;1.10;99.90;;;;;;5072003;28;20159;-72
2021/03/06 02:40:56;;;;;;;14.80;3.70;;;1.10;99.90;;;;;;5050700;28;20031;-69
2021/03/06 02:43:24;;;;;;;12.82;3.83;;;1.20;99.90;;;;;;5071189;28;20112;-69
2021/03/06 02:45:51;;;;;;;9.35;4.20;;;1.10;99.90;;;;;;5063355;28;20032;-69
2021/03/06 02:48:17;;;;;;;10.43;3.15;;;1.10;99.90;;;;;;5074578;28;20059;-69
2021/03/06 02:50:42;;;;;;;17.20;3.72;;;1.20;99.90;;;;;;5063398;28;20060;-68
2021/03/06 02:53:08;;;;;;;6.65;2.85;;;1.20;99.90;;;;;;5072663;28;20547;-70
2021/03/06 02:55:33;;;;;;;12.90;3.97;;;1.20;99.90;;;;;;5064070;28;20034;-69
2021/03/06 02:58:08;;;;;;;6.30;3.03;;;1.30;99.90;;;;;;5083770;28;20107;-70
2021/03/06 03:00:52;;;;;;;10.85;3.25;;;1.30;99.90;;;;;;5090257;28;20016;-72
2021/03/06 03:03:48;;;;;;;13.20;3.63;;;1.30;99.90;;;;;;5072577;28;20469;-69
2021/03/06 03:06:22;;;;;;;7.65;2.97;;;1.30;99.90;;;;;;5066995;28;20063;-70
2021/03/06 03:09:12;;;;;;;10.27;3.08;;;1.30;99.90;;;;;;5087876;28;20051;-69
2021/03/06 03:12:02;;;;;;;14.65;3.58;;;1.30;99.90;;;;;;5076589;28;20027;-70
2021/03/06 03:14:58;;;;;;;12.80;3.85;;;1.30;99.90;;;;;;5070362;28;20477;-70
2021/03/06 03:17:39;;;;;;;13.85;3.28;;;1.30;99.90;;;;;;5079730;28;20032;-71
2021/03/06 03:20:34;;;;;;;18.67;3.58;;;1.10;99.90;;;;;;5062044;28;20107;-70
2021/03/06 03:23:18;;;;;;;11.35;3.92;;;1.10;99.90;;;;;;5063027;28;20020;-70
2021/03/06 03:25:45;;;;;;;12.60;3.28;;;1.10;99.90;;;;;;5045615;28;20473;-70
2021/03/06 03:28:11;;;;;;;16.83;3.90;;;1.00;99.90;;;;;;5085544;28;20047;-69
2021/03/06 03:30:39;;;;;;;8.68;3.20;;;1.00;99.90;;;;;;5073503;28;20028;-69
2021/03/06 03:33:08;;;;;;;8.80;3.17;;;1.00;99.90;;;;;;5069275;28;20050;-71
2021/03/06 03:35:41;;;;;;;10.10;3.40;;;1.00;99.90;;;;;;5069017;28;20062;-70
2021/03/06 03:38:08;;;;;;;7.57;3.30;;;1.00;99.90;;;;;;5056947;28;20069;-68
2021/03/06 03:40:36;;;;;;;9.25;3.08;;;1.00;99.90;;;;;;5064362;28;20164;-70
2021/03/06 03:43:02;;;;;;;16.42;3.90;;;1.00;99.90;;;;;;5069574;28;20033;-67
2021/03/06 03:45:30;;;;;;;13.20;3.20;;;0.90;99.90;;;;;;5068870;28;20044;-67
2021/03/06 03:47:55;;;;;;;7.53;3.58;;;0.90;99.90;;;;;;5068933;28;20385;-69
2021/03/06 03:50:21;;;;;;;12.90;3.55;;;0.80;99.90;;;;;;5069470;28;20033;-69
2021/03/06 03:52:50;;;;;;;13.95;4.30;;;0.70;99.90;;;;;;5071407;28;20031;-66
2021/03/06 03:55:17;;;;;;;12.50;3.58;;;0.60;99.90;;;;;;5068466;28;20055;-70
2021/03/06 03:57:45;;;;;;;10.90;4.00;;;0.60;99.90;;;;;;5052872;28;20028;-67
2021/03/06 04:00:13;;;;;;;13.30;3.13;;;0.60;99.90;;;;;;5068858;28;20067;-68
2021/03/06 04:02:39;;;;;;;8.65;3.53;;;0.70;99.90;;;;;;5075997;28;20474;-70
2021/03/06 04:05:07;;;;;;;13.35;3.10;;;0.60;99.90;;;;;;5058446;28;20029;-70
2021/03/06 04:07:46;;;;;;;6.95;3.53;;;0.70;99.90;;;;;;5075282;28;20064;-69
2021/03/06 04:10:19;;;;;;;12.63;4.28;;;0.80;99.90;;;;;;5056077;28;20032;-69
2021/03/06 04:12:45;;;;;;;9.20;4.03;;;0.90;99.90;;;;;;5067854;28;20019;-70
2021/03/06 04:15:13;;;;;;;12.55;3.90;;;0.90;99.90;;;;;;5080724;28;20115;-69
2021/03/06 04:17:39;;;;;;;16.30;4.65;;;0.90;99.90;;;;;;5069101;28;20028;-68
2021/03/06 04:20:07;;;;;;;7.68;4.10;;;0.90;99.90;;;;;;5070749;28;20020;-69
2021/03/06 04:22:33;;;;;;;8.82;3.92;;;0.80;99.90;;;;;;5075639;28;20033;-69
2021/03/06 04:24:59;;;;;;;12.77;4.68;;;0.80;99.90;;;;;;5052587;28;20028;-67
2021/03/06 04:27:24;;;;;;;14.43;4.55;;;0.80;99.90;;;;;;5068660;28;20032;-66
2021/03/06 04:29:50;;;;;;;12.35;4.30;;;0.80;99.90;;;;;;5059147;28;20021;-68
2021/03/06 04:32:15;;;;;;;11.90;4.72;;;0.80;99.90;;;;;;5068550;28;20059;-68
2021/03/06 04:34:41;;;;;;;20.75;4.93;;;0.70;99.90;;;;;;5072767;28;20115;-70
2021/03/06 04:37:07;;;;;;;14.45;4.38;;;0.80;99.90;;;;;;5067081;28;20025;-72
2021/03/06 04:39:32;;;;;;;16.33;5.18;;;0.70;99.90;;;;;;5067061;28;20021;-70
2021/03/06 04:41:58;;;;;;;10.48;4.32;;;0.70;99.90;;;;;;5068144;28;20039;-70
2021/03/06 04:44:23;;;;;;;15.98;5.18;;;0.70;99.90;;;;;;5065105;28;20024;-72
2021/03/06 04:46:49;;;;;;;13.52;4.65;;;0.70;99.90;;;;;;5065747;28;20499;-69
2021/03/06 04:49:14;;;;;;;10.23;4.47;;;0.70;99.90;;;;;;5061675;28;20032;-69
2021/03/06 04:51:40;;;;;;;14.90;5.35;;;0.80;99.90;;;;;;5068147;28;20031;-70
2021/03/06 04:54:06;;;;;;;12.18;4.88;;;0.80;99.90;;;;;;5067206;28;20036;-69
2021/03/06 04:56:32;;;;;;;9.38;5.15;;;0.70;99.90;;;;;;5068366;28;20061;-69
2021/03/06 04:58:58;;;;;;;12.15;5.53;;;0.80;99.90;;;;;;5068351;28;20013;-69
2021/03/06 05:01:23;;;;;;;18.27;5.78;;;0.70;99.90;;;;;;5064852;28;20036;-67
2021/03/06 05:03:49;;;;;;;12.95;5.03;;;0.60;99.90;;;;;;5065546;28;20480;-67
2021/03/06 05:06:15;;;;;;;20.58;5.40;;;0.50;99.90;;;;;;5066012;28;20530;-67
2021/03/06 05:08:40;;;;;;;12.52;5.15;;;0.40;99.90;;;;;;5077264;28;20037;-68
2021/03/06 05:11:07;;;;;;;11.13;5.30;;;0.30;99.90;;;;;;5075659;28;20419;-68
2021/03/06 05:13:33;;;;;;;12.15;5.22;;;0.30;99.90;;;;;;5070529;28;20028;-69
2021/03/06 05:15:58;;;;;;;16.08;5.75;;;0.20;99.90;;;;;;5052945;28;20059;-68
2021/03/06 05:18:24;;;;;;;10.88;5.15;;;0.20;99.90;;;;;;5076133;28;20067;-70
2021/03/06 05:20:50;;;;;;;10.57;5.25;;;0.20;99.90;;;;;;5072663;28;20077;-69
2021/03/06 05:23:16;;;;;;;23.00;5.57;;;0.20;99.90;;;;;;5074629;28;20125;-68
2021/03/06 05:25:42;;;;;;;17.00;5.20;;;0.20;99.90;;;;;;5066912;28;20044;-69
2021/03/06 05:28:07;;;;;;;16.20;5.85;;;0.20;99.90;;;;;;5091316;28;20032;-69
2021/03/06 05:30:33;;;;;;;18.08;5.43;;;0.20;99.90;;;;;;5072819;28;20020;-70
2021/03/06 05:32:58;;;;;;;15.50;5.97;;;0.10;99.90;;;;;;5083027;28;20020;-70
2021/03/06 05:35:24;;;;;;;13.18;5.72;;;0.10;99.90;;;;;;5073649;28;20023;-69
2021/03/06 05:37:50;;;;;;;10.70;5.63;;;0.10;99.90;;;;;;5071705;28;20021;-71
2021/03/06 05:40:16;;;;;;;8.68;5.43;;;0.10;99.90;;;;;;5071688;28;20370;-69
2021/03/06 05:42:42;;;;;;;13.45;5.55;;;0.10;99.90;;;;;;5054919;28;20032;-69
2021/03/06 05:45:08;;;;;;;16.73;5.65;;;0.00;99.90;;;;;;5072025;28;20031;-68
2021/03/06 05:47:34;;;;;;;9.55;5.70;;;-0.10;99.90;;;;;;5074182;28;20074;-72
2021/03/06 05:50:00;;;;;;;16.20;5.57;;;0.00;99.90;;;;;;5072652;28;20025;-67
2021/03/06 05:52:28;;;;;;;14.48;6.15;;;0.00;99.90;;;;;;5057394;28;20029;-70
2021/03/06 05:54:55;;;;;;;10.05;5.88;;;-0.10;99.90;;;;;;5072151;28;20017;-71
2021/03/06 05:57:22;;;;;;;13.30;6.10;;;-0.10;99.90;;;;;;5073050;28;20051;-70
2021/03/06 05:59:48;;;;;;;14.38;6.28;;;-0.20;99.90;;;;;;5074004;28;20128;-71
2021/03/06 06:02:18;;;;;;;17.92;5.80;;;-0.20;99.90;;;;;;5054854;28;20052;-70
2021/03/06 06:04:46;;;;;;;16.73;6.28;;;-0.20;99.90;;;;;;5060236;28;20504;-70
2021/03/06 06:07:17;;;;;;;12.23;5.90;;;-0.20;99.90;;;;;;5066439;28;20052;-69
2021/03/06 06:09:45;;;;;;;22.17;6.80;;;-0.20;99.90;;;;;;5053998;28;20036;-70
2021/03/06 06:12:12;;;;;;;13.40;6.32;;;-0.20;99.90;;;;;;5056637;28;20112;-70
2021/03/06 06:14:39;;;;;;;23.23;5.88;;;-0.20;99.90;;;;;;5063951;28;20036;-69
2021/03/06 06:17:06;;;;;;;16.95;6.25;;;-0.20;99.90;;;;;;5071550;28;20024;-68
2021/03/06 06:19:33;;;;;;;13.07;6.25;;;-0.20;99.90;;;;;;5063408;28;20384;-71
2021/03/06 06:22:01;;;;;;;13.32;5.93;;;-0.20;99.90;;;;;;5068776;28;20380;-70
2021/03/06 06:24:27;;;;;;;14.23;7.40;;;-0.30;99.90;;;;;;5077981;28;20131;-71
2021/03/06 06:26:57;;;;;;;14.57;6.55;;;-0.30;99.90;;;;;;5067756;28;20028;-70
2021/03/06 06:29:37;;;;;;;16.25;6.03;;;-0.30;99.90;;;;;;5071743;28;20040;-68
2021/03/06 06:32:04;;;;;;;23.35;6.55;;;-0.40;99.90;;;;;;5068811;28;20128;-69
2021/03/06 06:34:30;;;;;;;12.82;5.88;;;-0.40;99.90;;;;;;5069955;28;20539;-71
2021/03/06 06:36:55;;;;;;;15.52;6.18;;;-0.40;99.90;;;;;;5064010;28;20172;-70
2021/03/06 06:39:29;;;;;;;17.63;5.82;;;-0.30;99.90;;;;;;5063996;28;20119;-69
2021/03/06 06:42:00;;;;;;;22.00;5.80;;;-0.20;99.90;;;;;;5062988;28;20078;-70
2021/03/06 06:44:27;;;;;;;17.30;6.78;;;-0.10;99.90;;;;;;5046418;28;20028;-68
2021/03/06 06:46:54;;;;;;;18.45;7.93;;;0.10;99.90;;;;;;5062147;28;20079;-73
2021/03/06 06:49:20;;;;;;;23.00;8.25;;;0.10;99.90;;;;;;5066612;28;20044;-70
2021/03/06 06:51:57;;;;;;;18.17;9.13;;;0.10;99.90;;;;;;5066836;28;20017;-69
2021/03/06 06:54:24;;;;;;;26.48;9.43;;;0.10;99.90;;;;;;5063627;28;20121;-75
2021/03/06 06:56:50;;;;;;;22.48;9.68;;;0.10;99.90;;;;;;5064406;28;20016;-71
2021/03/06 06:59:17;;;;;;;21.17;11.57;;;0.10;99.90;;;;;;5058418;28;20086;-73
2021/03/06 07:01:42;;;;;;;24.38;10.52;;;0.10;99.90;;;;;;5066343;28;20116;-68
2021/03/06 07:04:10;;;;;;;19.42;9.73;;;0.20;99.90;;;;;;5065624;28;20107;-69
2021/03/06 07:06:36;;;;;;;26.38;11.10;;;0.20;99.90;;;;;;5063771;28;20139;-72
2021/03/06 07:09:14;;;;;;;27.38;11.38;;;0.30;99.90;;;;;;5045855;28;20405;-70
2021/03/06 07:11:43;;;;;;;20.58;10.95;;;0.30;99.90;;;;;;5061919;28;20497;-73
2021/03/06 07:14:08;;;;;;;30.15;10.88;;;0.30;99.90;;;;;;5046042;28;20043;-74
2021/03/06 07:17:00;;;;;;;16.63;10.88;;;0.30;99.90;;;;;;5048502;28;20029;-73
2021/03/06 07:19:31;;;;;;;20.85;9.55;;;0.40;99.90;;;;;;5066261;28;20023;-72
2021/03/06 07:22:00;;;;;;;17.55;9.13;;;0.50;99.90;;;;;;5067384;28;20037;-71
2021/03/06 07:24:26;;;;;;;14.55;8.13;;;0.60;99.90;;;;;;5067106;28;20036;-71
2021/03/06 07:26:52;;;;;;;19.02;8.65;;;0.70;99.90;;;;;;5052221;28;20516;-73
2021/03/06 07:29:19;;;;;;;17.55;8.63;;;0.70;99.90;;;;;;5036361;28;20033;-69
2021/03/06 07:31:49;;;;;;;24.05;8.00;;;0.70;99.90;;;;;;5061252;28;20017;-72
2021/03/06 07:34:17;;;;;;;18.23;8.00;;;0.80;99.90;;;;;;5070582;28;20036;-72
2021/03/06 07:36:45;;;;;;;23.58;7.47;;;0.80;99.90;;;;;;5078902;28;20032;-71
2021/03/06 07:39:13;;;;;;;14.52;8.35;;;0.90;99.90;;;;;;5074311;28;20024;-71
2021/03/06 07:41:41;;;;;;;22.75;8.23;;;0.90;99.90;;;;;;5089927;28;20543;-70
2021/03/06 07:44:07;;;;;;;19.42;9.45;;;0.90;99.90;;;;;;5088095;28;20032;-72
2021/03/06 07:46:38;;;;;;;18.65;8.57;;;0.90;99.90;;;;;;5088762;28;20127;-71
2021/03/06 07:49:11;;;;;;;25.27;9.45;;;1.00;99.90;;;;;;5069305;28;20067;-72
2021/03/06 07:51:41;;;;;;;23.40;8.65;;;1.10;99.90;;;;;;5057396;28;20035;-70
2021/03/06 07:54:07;;;;;;;20.63;8.90;;;1.10;99.90;;;;;;5080519;28;20032;-72
2021/03/06 07:56:35;;;;;;;20.48;9.23;;;1.10;99.90;;;;;;5079344;28;20028;-71
2021/03/06 07:59:01;;;;;;;26.60;9.13;;;1.10;99.90;;;;;;5071035;28;20569;-68
2021/03/06 08:01:33;;;;;;;17.17;8.65;;;1.20;99.90;;;;;;5076182;28;20025;-70
2021/03/06 08:04:00;;;;;;;18.33;8.35;;;1.20;99.90;;;;;;5073459;28;20024;-69
2021/03/06 08:06:28;;;;;;;24.52;9.48;;;1.30;99.90;;;;;;5069431;28;20052;-70
2021/03/06 08:09:04;;;;;;;16.95;8.07;;;1.40;99.90;;;;;;5066543;28;20043;-71
2021/03/06 08:11:43;;;;;;;12.95;7.40;;;1.40;99.90;;;;;;5066959;28;20418;-69
2021/03/06 08:14:32;;;;;;;22.25;8.07;;;1.50;99.90;;;;;;5066861;28;20393;-66
2021/03/06 08:16:58;;;;;;;16.80;7.68;;;1.60;99.90;;;;;;5085542;28;20024;-68
2021/03/06 08:19:26;;;;;;;18.27;7.25;;;1.70;99.90;;;;;;5069790;28;20100;-70
2021/03/06 08:21:54;;;;;;;16.88;6.85;;;1.80;99.90;;;;;;5087817;28;20028;-70
2021/03/06 08:24:19;;;;;;;22.05;7.40;;;1.90;99.90;;;;;;5083946;28;20062;-67
2021/03/06 08:27:03;;;;;;;17.90;6.63;;;2.00;99.90;;;;;;5074440;28;20012;-70
2021/03/06 08:29:29;;;;;;;13.52;7.15;;;2.40;99.90;;;;;;5083506;28;20040;-68
2021/03/06 08:32:05;;;;;;;12.85;7.15;;;2.70;99.90;;;;;;5065595;28;20055;-69
2021/03/06 08:34:39;;;;;;;17.15;7.00;;;3.00;99.90;;;;;;5074207;28;20029;-67
2021/03/06 08:37:16;;;;;;;18.33;8.90;;;3.60;99.90;;;;;;5064397;28;20028;-69
2021/03/06 08:39:58;;;;;;;13.95;6.38;;;3.60;99.90;;;;;;5067084;28;20739;-70
2021/03/06 08:42:31;;;;;;;16.80;5.97;;;3.50;99.90;;;;;;5069131;28;20036;-70
2021/03/06 08:45:22;;;;;;;14.38;6.20;;;3.80;99.90;;;;;;5068865;28;20035;-74
2021/03/06 08:47:52;;;;;;;11.45;5.53;;;4.40;99.90;;;;;;5055914;28;20036;-70
2021/03/06 08:50:20;;;;;;;9.00;4.43;;;4.40;99.90;;;;;;5068861;28;20169;-68
2021/03/06 08:53:02;;;;;;;12.25;3.75;;;4.10;99.90;;;;;;5067198;28;20165;-71
2021/03/06 08:55:38;;;;;;;12.52;3.95;;;4.20;99.90;;;;;;5068927;28;20428;-71
2021/03/06 08:58:06;;;;;;;12.95;3.75;;;4.20;99.90;;;;;;5075088;28;20028;-71
2021/03/06 09:00:33;;;;;;;9.30;3.60;;;4.50;99.90;;;;;;5075779;28;20689;-72
2021/03/06 09:03:08;;;;;;;14.90;3.28;;;4.90;99.90;;;;;;5072832;28;20024;-68
2021/03/06 09:05:34;;;;;;;12.40;3.53;;;5.00;99.90;;;;;;5072825;28;20071;-67
2021/03/06 09:07:59;;;;;;;9.73;3.05;;;5.30;99.90;;;;;;5069867;28;20489;-70
2021/03/06 09:10:40;;;;;;;6.97;3.17;;;5.20;99.90;;;;;;5073104;28;20032;-71
2021/03/06 09:13:14;;;;;;;11.35;3.30;;;5.10;99.90;;;;;;5071462;28;20020;-70
2021/03/06 09:15:50;;;;;;;6.85;3.00;;;5.30;99.90;;;;;;5071621;28;20046;-70
2021/03/06 09:18:37;;;;;;;9.20;2.70;;;5.40;99.90;;;;;;5075411;28;20138;-71
2021/03/06 09:21:11;;;;;;;8.18;2.63;;;5.80;99.90;;;;;;5068329;28;20040;-71
2021/03/06 09:23:39;;;;;;;6.05;2.75;;;5.60;99.90;;;;;;5069979;28;20067;-73
2021/03/06 09:26:19;;;;;;;13.35;3.40;;;5.40;99.90;;;;;;5069750;28;20496;-71
2021/03/06 09:28:46;;;;;;;9.80;2.75;;;5.60;99.90;;;;;;5072525;28;20039;-68
2021/03/06 09:31:14;;;;;;;9.48;3.03;;;5.00;99.90;;;;;;5074644;28;20546;-71
2021/03/06 09:33:41;;;;;;;8.07;2.80;;;5.20;99.90;;;;;;5067065;28;20032;-72
2021/03/06 09:36:08;;;;;;;11.10;3.30;;;5.10;99.90;;;;;;5074817;28;20020;-69
2021/03/06 09:38:41;;;;;;;9.85;3.08;;;5.50;99.90;;;;;;5056850;28;20366;-69
2021/03/06 09:41:09;;;;;;;10.85;3.03;;;5.80;99.90;;;;;;5061970;28;20022;-71
2021/03/06 09:43:39;;;;;;;8.07;3.30;;;5.40;99.90;;;;;;5074393;28;20106;-68
2021/03/06 09:46:13;;;;;;;9.07;2.90;;;5.60;99.90;;;;;;5079053;28;20101;-68
2021/03/06 09:48:47;;;;;;;10.65;3.05;;;5.70;99.90;;;;;;5091872;28;20044;-69
2021/03/06 09:51:13;;;;;;;10.52;3.45;;;5.30;99.90;;;;;;5066331;28;20059;-70
2021/03/06 09:53:39;;;;;;;6.20;2.22;;;5.60;99.90;;;;;;5073290;28;20056;-67
2021/03/06 09:56:08;;;;;;;6.95;1.75;;;5.70;99.90;;;;;;5070626;28;20016;-69
2021/03/06 09:58:34;;;;;;;8.32;1.80;;;5.90;99.90;;;;;;5065959;28;20025;-68
2021/03/06 10:01:19;;;;;;;5.57;1.60;;;5.80;99.90;;;;;;5064027;28;20381;-68
2021/03/06 10:03:48;;;;;;;7.32;1.83;;;5.50;99.90;;;;;;5069671;28;20039;-70
2021/03/06 10:06:19;;;;;;;8.45;1.33;;;5.50;99.90;;;;;;5052942;28;20045;-68
2021/03/06 10:08:55;;;;;;;8.98;1.40;;;5.40;99.90;;;;;;5066917;28;20035;-67
2021/03/06 10:11:34;;;;;;;6.72;1.30;;;5.60;99.90;;;;;;5050229;28;20035;-68
2021/03/06 10:14:00;;;;;;;8.85;1.90;;;5.50;99.90;;;;;;5062816;28;20163;-67
2021/03/06 10:16:26;;;;;;;15.30;1.85;;;5.60;99.90;;;;;;5067199;28;20043;-67
2021/03/06 10:18:53;;;;;;;4.55;1.40;;;5.40;99.90;;;;;;5067731;28;20107;-67
2021/03/06 10:21:21;;;;;;;7.82;2.05;;;5.30;99.90;;;;;;5051515;28;20504;-70
2021/03/06 10:23:48;;;;;;;6.20;2.28;;;5.00;99.90;;;;;;5072961;28;20028;-67
2021/03/06 10:26:22;;;;;;;4.85;1.20;;;5.10;99.90;;;;;;5052289;28;20110;-68
2021/03/06 10:28:51;;;;;;;5.25;1.65;;;5.20;99.90;;;;;;5067676;28;20028;-69
2021/03/06 10:31:32;;;;;;;5.70;1.63;;;5.60;99.90;;;;;;5067801;28;20049;-67
2021/03/06 10:33:58;;;;;;;7.70;1.30;;;5.90;99.90;;;;;;5049419;28;20382;-66
2021/03/06 10:36:24;;;;;;;9.70;1.27;;;6.30;99.90;;;;;;5043911;28;20211;-67
2021/03/06 10:39:15;;;;;;;12.88;1.85;;;6.20;99.90;;;;;;5066203;28;20691;-69
2021/03/06 10:41:41;;;;;;;8.20;1.33;;;6.10;99.90;;;;;;5052483;28;20585;-67
2021/03/06 10:44:07;;;;;;;3.33;0.90;;;5.70;99.90;;;;;;5078401;28;20036;-68
2021/03/06 10:46:35;;;;;;;6.88;1.70;;;5.40;99.90;;;;;;5075131;28;20040;-69
2021/03/06 10:49:03;;;;;;;9.50;1.45;;;5.70;99.90;;;;;;5064725;28;20051;-68
2021/03/06 10:51:49;;;;;;;10.77;1.92;;;6.10;99.90;;;;;;5063324;28;20029;-70
2021/03/06 10:54:16;;;;;;;8.38;1.45;;;6.10;99.90;;;;;;5064531;28;20054;-67
2021/03/06 10:56:42;;;;;;;6.65;0.95;;;5.80;99.90;;;;;;5063783;28;20453;-67
2021/03/06 10:59:09;;;;;;;4.72;0.98;;;5.50;99.90;;;;;;5043017;28;20466;-68
2021/03/06 11:01:50;;;;;;;7.60;1.30;;;5.50;99.90;;;;;;5066211;28;20050;-69
2021/03/06 11:04:26;;;;;;;8.07;1.00;;;5.30;99.90;;;;;;5068970;28;20025;-66
2021/03/06 11:06:58;;;;;;;6.82;1.10;;;5.30;99.90;;;;;;5082823;28;20041;-67
2021/03/06 11:09:26;;;;;;;6.27;1.90;;;5.30;99.90;;;;;;5050901;28;20041;-71
2021/03/06 11:11:51;;;;;;;4.80;1.20;;;5.20;99.90;;;;;;5073952;28;20352;-68
2021/03/06 11:14:27;;;;;;;10.40;1.27;;;5.40;99.90;;;;;;5069587;28;21643;-66
2021/03/06 11:16:53;;;;;;;1.90;1.00;;;5.90;99.90;;;;;;5051293;28;20562;-68
2021/03/06 11:19:20;;;;;;;7.13;1.52;;;6.30;99.90;;;;;;5067219;28;20803;-69
2021/03/06 11:21:48;;;;;;;2.78;0.82;;;6.40;99.70;;;;;;5064397;28;20028;-67
2021/03/06 11:24:14;;;;;;;6.65;0.95;;;5.90;97.90;;;;;;5061558;28;20052;-68
2021/03/06 11:26:39;;;;;;;5.20;0.95;;;6.10;99.40;;;;;;5064817;28;20048;-69
2021/03/06 11:29:05;;;;;;;1.88;0.70;;;6.00;99.00;;;;;;5066432;28;20331;-67
2021/03/06 11:31:32;;;;;;;3.50;0.70;;;5.90;98.00;;;;;;5070701;28;20039;-69
2021/03/06 11:33:59;;;;;;;10.65;0.90;;;6.70;98.60;;;;;;5059893;28;20016;-67
2021/03/06 11:36:24;;;;;;;5.85;0.70;;;7.20;97.00;;;;;;5066603;28;20085;-69
2021/03/06 11:38:54;;;;;;;4.75;0.70;;;7.50;96.60;;;;;;5068517;28;20420;-67
2021/03/06 11:41:20;;;;;;;3.10;0.75;;;7.80;94.30;;;;;;5061084;28;20089;-69
2021/03/06 11:43:46;;;;;;;3.38;0.98;;;7.90;91.40;;;;;;5055538;28;20064;-70
2021/03/06 11:46:11;;;;;;;3.35;0.85;;;8.40;91.00;;;;;;5068559;28;20043;-67
2021/03/06 11:48:37;;;;;;;5.03;0.98;;;8.50;88.00;;;;;;5065533;28;20028;-68
2021/03/06 11:51:04;;;;;;;2.90;1.02;;;8.80;90.30;;;;;;5051071;28;20059;-71
2021/03/06 11:53:31;;;;;;;2.97;1.00;;;9.10;83.80;;;;;;5060150;28;20101;-72
2021/03/06 11:55:57;;;;;;;5.50;0.90;;;8.80;82.80;;;;;;5045973;28;20470;-71
2021/03/06 11:58:23;;;;;;;1.65;0.90;;;8.50;84.10;;;;;;5048695;28;20071;-70
2021/03/06 12:00:49;;;;;;;3.30;0.80;;;8.50;86.00;;;;;;5057842;28;20024;-69
2021/03/06 12:03:14;;;;;;;6.18;1.38;;;8.60;84.00;;;;;;5063185;28;20025;-69
2021/03/06 12:05:40;;;;;;;7.00;1.10;;;8.70;85.50;;;;;;5070996;28;20025;-71
2021/03/06 12:08:05;;;;;;;7.07;1.05;;;8.30;84.00;;;;;;5060832;28;20119;-68
2021/03/06 12:10:31;;;;;;;3.85;0.90;;;8.60;83.00;;;;;;5065197;28;20112;-70
2021/03/06 12:12:57;;;;;;;4.75;1.00;;;8.20;85.30;;;;;;5062615;28;20044;-70
2021/03/06 12:15:23;;;;;;;5.00;1.27;;;8.00;86.50;;;;;;5065571;28;20828;-67
2021/03/06 12:17:49;;;;;;;6.00;1.13;;;7.50;90.30;;;;;;5064703;28;20043;-70
2021/03/06 12:20:16;;;;;;;3.10;1.15;;;7.00;90.80;;;;;;5062824;28;20047;-68
2021/03/06 12:22:44;;;;;;;9.00;1.20;;;6.60;92.30;;;;;;5071565;28;20028;-67
2021/03/06 12:25:11;;;;;;;7.25;1.27;;;6.50;93.10;;;;;;5070591;28;20028;-66
2021/03/06 12:27:37;;;;;;;3.95;0.90;;;6.30;93.10;;;;;;5065606;28;20024;-70
2021/03/06 12:30:06;;;;;;;6.70;1.13;;;6.40;93.30;;;;;;5056575;28;20043;-70
2021/03/06 12:32:33;;;;;;;7.65;1.02;;;6.30;93.80;;;;;;5054350;28;20064;-66
2021/03/06 12:34:58;;;;;;;5.22;0.98;;;6.40;94.00;;;;;;5086371;28;20496;-69
2021/03/06 12:37:25;;;;;;;3.25;1.08;;;6.30;93.60;;;;;;5055405;28;20065;-69
2021/03/06 12:39:51;;;;;;;8.02;1.35;;;6.30;94.00;;;;;;5070865;28;20021;-68
2021/03/06 12:42:17;;;;;;;4.40;1.02;;;6.30;93.10;;;;;;5055086;28;20508;-69
2021/03/06 12:44:42;;;;;;;6.75;1.15;;;6.20;92.50;;;;;;5053283;28;20020;-67
2021/03/06 12:47:08;;;;;;;9.93;1.10;;;6.30;91.40;;;;;;5067502;28;20064;-69
2021/03/06 12:49:34;;;;;;;9.80;1.42;;;6.40;90.70;;;;;;5071890;28;20139;-69
2021/03/06 12:51:59;;;;;;;5.25;0.95;;;6.10;89.40;;;;;;5043183;28;20021;-66
2021/03/06 12:54:26;;;;;;;8.77;1.38;;;6.00;90.30;;;;;;5070418;28;20367;-66
2021/03/06 12:56:51;;;;;;;4.13;1.13;;;6.10;89.70;;;;;;5072122;28;20101;-66
2021/03/06 12:59:17;;;;;;;5.20;0.82;;;6.20;89.50;;;;;;5071625;28;20091;-68
2021/03/06 13:01:43;;;;;;;4.07;1.13;;;6.40;89.00;;;;;;5064276;28;20040;-69